KOCH/OCH METAR and TAF weather

Enter ICAO airport designator
Station Type Date Time Source
KOCH METAR 2019/10/15 18:03 UTC NOAA

KOCH 151803Z AUTO 23005KT 9SM -RA OVC007 25/25 A2994 RMK AO2 CIG 004V011 P0000


Station Type Date Time Source
KOCH Decoded METAR 2019/10/15 18:03 UTC NOAA

Nacogdoches, A L Mangham Jr. Regional Airport, TX, United States (KOCH) 31-35N 094-43W
Oct 15, 2019 - 02:03 PM EDT / 2019.10.15 1803 UTC
Wind: from the SW (230 degrees) at 6 MPH (5 KT):0
Visibility: 9 mile(s):0
Sky conditions: overcast
Weather: light rain
Precipitation last hour: A trace
Temperature: 77 F (25 C)
Dew Point: 77 F (25 C)
Relative Humidity: 100%
Pressure (altimeter): 29.94 in. Hg (1013 hPa)
ob: KOCH 151803Z AUTO 23005KT 9SM -RA OVC007 25/25 A2994 RMK AO2 CIG 004V011 P0000
cycle: 18

Station Type Date Time Source
KOCH TAF UTC NOAA

Error!

Example: see airport list